createdAt,value
2023-04-16T00:01:51.000Z,14.63
2023-04-16T00:04:18.028Z,7.67
2023-04-16T00:06:45.335Z,8.40
2023-04-16T00:09:12.099Z,11.70
2023-04-16T00:11:39.082Z,9.47
2023-04-16T00:14:05.896Z,13.77
2023-04-16T00:16:32.971Z,12.00
2023-04-16T00:18:59.849Z,11.50
2023-04-16T00:21:26.842Z,15.97
2023-04-16T00:23:53.675Z,16.73
2023-04-16T00:26:20.754Z,13.37
2023-04-16T00:28:47.801Z,14.87
2023-04-16T00:31:14.978Z,18.20
2023-04-16T00:33:41.747Z,10.43
2023-04-16T00:36:09.489Z,15.13
2023-04-16T00:38:36.236Z,11.77
2023-04-16T00:41:03.131Z,12.73
2023-04-16T00:43:30.893Z,11.93
2023-04-16T00:45:58.013Z,11.07
2023-04-16T00:48:27.951Z,15.00
2023-04-16T00:50:55.694Z,14.20
2023-04-16T00:53:22.799Z,14.30
2023-04-16T00:55:49.611Z,12.70
2023-04-16T00:58:17.143Z,19.23
2023-04-16T01:00:44.446Z,13.13
2023-04-16T01:03:11.479Z,17.20
2023-04-16T01:05:43.804Z,13.63
2023-04-16T01:08:17.989Z,15.90
2023-04-16T01:10:45.405Z,14.33
2023-04-16T01:13:12.305Z,14.17
2023-04-16T01:15:39.251Z,13.07
2023-04-16T01:18:16.176Z,13.97
2023-04-16T01:20:43.236Z,14.53
2023-04-16T01:23:10.078Z,16.77
2023-04-16T01:25:36.900Z,14.60
2023-04-16T01:28:03.742Z,15.73
2023-04-16T01:30:30.629Z,17.80
2023-04-16T01:33:11.233Z,14.33
2023-04-16T01:35:38.523Z,15.50
2023-04-16T01:38:06.051Z,16.93
2023-04-16T01:40:32.840Z,17.77
2023-04-16T01:42:59.664Z,15.87
2023-04-16T01:45:27.201Z,15.07
2023-04-16T01:47:54.548Z,17.03
2023-04-16T01:50:21.540Z,14.90
2023-04-16T01:52:48.512Z,11.73
2023-04-16T01:55:15.966Z,12.20
2023-04-16T01:57:43.055Z,16.00
2023-04-16T02:00:11.789Z,15.60
2023-04-16T02:02:49.547Z,14.43
2023-04-16T02:05:24.268Z,16.50
2023-04-16T02:07:51.124Z,18.53
2023-04-16T02:10:18.021Z,13.90
2023-04-16T02:12:45.594Z,18.13
2023-04-16T02:15:14.051Z,16.93
2023-04-16T02:17:40.961Z,14.17
2023-04-16T02:20:11.050Z,16.87
2023-04-16T02:22:59.764Z,17.43
2023-04-16T02:25:27.376Z,15.13
2023-04-16T02:27:56.165Z,15.23
2023-04-16T02:30:31.426Z,19.80
2023-04-16T02:32:58.554Z,18.47
2023-04-16T02:35:26.143Z,15.53
2023-04-16T02:37:53.061Z,19.10
2023-04-16T02:40:20.651Z,17.47
2023-04-16T02:42:49.233Z,18.13
2023-04-16T02:45:16.334Z,15.97
2023-04-16T02:47:43.564Z,20.43
2023-04-16T02:50:10.858Z,22.27
2023-04-16T02:52:37.775Z,18.70
2023-04-16T02:55:04.882Z,17.40
2023-04-16T02:57:31.939Z,25.23
2023-04-16T02:59:58.797Z,21.00
2023-04-16T03:02:25.934Z,22.33
2023-04-16T03:04:53.296Z,24.27
2023-04-16T03:07:20.545Z,23.90
2023-04-16T03:09:47.392Z,22.27
2023-04-16T03:12:14.206Z,25.27
2023-04-16T03:14:40.980Z,21.30
2023-04-16T03:17:07.894Z,26.57
2023-04-16T03:19:34.705Z,23.60
2023-04-16T03:22:01.520Z,26.37
2023-04-16T03:24:29.633Z,21.30
2023-04-16T03:26:57.590Z,35.43
2023-04-16T03:29:24.483Z,32.43
2023-04-16T03:31:51.280Z,26.90
2023-04-16T03:34:18.039Z,23.17
2023-04-16T03:36:46.119Z,28.63
2023-04-16T03:39:13.238Z,29.60
2023-04-16T03:41:40.017Z,28.57
2023-04-16T03:44:06.748Z,36.90
2023-04-16T03:46:34.151Z,33.33
2023-04-16T03:49:01.095Z,37.40
2023-04-16T03:51:28.805Z,36.27
2023-04-16T03:53:59.423Z,24.37
2023-04-16T03:56:27.542Z,29.37
2023-04-16T03:58:54.556Z,37.67
2023-04-16T04:01:21.366Z,28.60
2023-04-16T04:03:48.525Z,23.67
2023-04-16T04:06:16.097Z,34.40
2023-04-16T04:08:42.876Z,47.20
2023-04-16T04:11:10.880Z,28.07
2023-04-16T04:13:39.341Z,29.57
2023-04-16T04:16:06.711Z,36.13
2023-04-16T04:18:33.667Z,31.70
2023-04-16T04:21:00.955Z,30.70
2023-04-16T04:23:30.101Z,21.97
2023-04-16T04:25:57.041Z,26.30
2023-04-16T04:28:24.377Z,22.57
2023-04-16T04:30:51.560Z,35.43
2023-04-16T04:33:18.854Z,35.20
2023-04-16T04:35:47.419Z,21.63
2023-04-16T04:38:16.253Z,39.43
2023-04-16T04:40:43.295Z,27.60
2023-04-16T04:43:10.121Z,28.00
2023-04-16T04:45:36.888Z,23.47
2023-04-16T04:48:05.394Z,23.43
2023-04-16T04:50:32.366Z,28.57
2023-04-16T04:52:59.854Z,32.07
2023-04-16T04:55:27.080Z,19.53
2023-04-16T04:57:54.354Z,15.47
2023-04-16T05:00:21.694Z,17.43
2023-04-16T05:02:53.680Z,24.43
2023-04-16T05:05:21.209Z,26.70
2023-04-16T05:07:48.082Z,29.50
2023-04-16T05:10:14.896Z,23.47
2023-04-16T05:12:41.754Z,26.10
2023-04-16T05:15:08.806Z,24.20
2023-04-16T05:17:36.230Z,21.10
2023-04-16T05:20:03.122Z,25.13
2023-04-16T05:22:30.000Z,23.97
2023-04-16T05:24:56.748Z,28.97
2023-04-16T05:27:23.602Z,25.10
2023-04-16T05:29:50.519Z,19.83
2023-04-16T05:32:17.338Z,28.97
2023-04-16T05:34:44.135Z,21.97
2023-04-16T05:37:10.979Z,22.03
2023-04-16T05:39:37.826Z,19.87
2023-04-16T05:42:04.629Z,17.00
2023-04-16T05:44:31.386Z,19.00
2023-04-16T05:46:58.176Z,15.70
2023-04-16T05:49:24.868Z,15.97
2023-04-16T05:51:51.628Z,16.03
2023-04-16T05:54:18.453Z,14.90
2023-04-16T05:56:45.229Z,13.50
2023-04-16T05:59:12.225Z,13.43
2023-04-16T06:01:39.296Z,16.23
2023-04-16T06:04:06.312Z,16.27
2023-04-16T06:06:33.361Z,12.87
2023-04-16T06:09:00.138Z,10.67
2023-04-16T06:11:27.730Z,15.20
2023-04-16T06:13:54.592Z,31.93
2023-04-16T06:16:21.402Z,12.07
2023-04-16T06:18:48.205Z,11.90
2023-04-16T06:21:15.861Z,11.83
2023-04-16T06:23:42.683Z,12.60
2023-04-16T06:26:09.553Z,15.43
2023-04-16T06:28:37.285Z,15.13
2023-04-16T06:31:04.626Z,11.17
2023-04-16T06:33:31.508Z,12.00
2023-04-16T06:35:58.301Z,10.80
2023-04-16T06:38:25.023Z,9.90
2023-04-16T06:40:51.804Z,11.73
2023-04-16T06:43:18.554Z,10.53
2023-04-16T06:45:45.498Z,10.73
2023-04-16T06:48:13.233Z,10.73
2023-04-16T06:50:41.407Z,11.70
2023-04-16T06:53:08.135Z,12.93
2023-04-16T06:55:34.921Z,10.87
2023-04-16T06:58:01.681Z,12.37
2023-04-16T07:00:28.481Z,12.33
2023-04-16T07:02:58.247Z,11.97
2023-04-16T07:05:25.439Z,13.60
2023-04-16T07:07:52.234Z,16.07
2023-04-16T07:10:19.196Z,18.30
2023-04-16T07:12:46.398Z,18.20
2023-04-16T07:15:13.112Z,12.60
2023-04-16T07:17:39.935Z,17.87
2023-04-16T07:20:07.809Z,19.63
2023-04-16T07:22:34.758Z,19.80
2023-04-16T07:25:01.521Z,14.27
2023-04-16T07:27:28.509Z,14.87
2023-04-16T07:29:55.868Z,15.47
2023-04-16T07:32:22.986Z,23.00
2023-04-16T07:34:49.806Z,16.47
2023-04-16T07:37:16.559Z,18.80
2023-04-16T07:39:43.447Z,20.73
2023-04-16T07:42:10.297Z,16.93
2023-04-16T07:44:37.057Z,19.40
2023-04-16T07:47:05.566Z,16.97
2023-04-16T07:49:32.649Z,15.30
2023-04-16T07:51:59.420Z,18.13
2023-04-16T07:54:28.427Z,16.17
2023-04-16T07:56:56.080Z,13.77
2023-04-16T07:59:24.315Z,13.67
2023-04-16T08:01:52.848Z,16.77
2023-04-16T08:04:25.031Z,14.00
2023-04-16T08:06:52.440Z,15.63
2023-04-16T08:09:19.849Z,15.77
2023-04-16T08:11:46.910Z,18.20
2023-04-16T08:14:13.833Z,14.17
2023-04-16T08:16:40.802Z,17.87
2023-04-16T08:19:07.784Z,15.07
2023-04-16T08:21:34.881Z,14.27
2023-04-16T08:24:01.732Z,16.10
2023-04-16T08:26:28.603Z,15.70
2023-04-16T08:28:55.355Z,14.30
2023-04-16T08:31:22.405Z,14.67
2023-04-16T08:33:49.584Z,20.00
2023-04-16T08:36:16.568Z,15.80
2023-04-16T08:38:43.482Z,16.13
2023-04-16T08:41:12.554Z,18.10
2023-04-16T08:43:45.674Z,14.77
2023-04-16T08:46:12.947Z,14.60
2023-04-16T08:48:42.139Z,17.20
2023-04-16T08:51:10.079Z,15.13
2023-04-16T08:53:43.460Z,16.10
2023-04-16T08:56:11.622Z,16.67
2023-04-16T08:58:39.965Z,13.87
2023-04-16T09:01:06.911Z,19.07
2023-04-16T09:03:36.520Z,16.07
2023-04-16T09:06:04.841Z,23.13
2023-04-16T09:08:32.273Z,26.00
2023-04-16T09:10:59.826Z,32.60
2023-04-16T09:13:26.900Z,29.00
2023-04-16T09:15:54.438Z,34.47
2023-04-16T09:18:21.542Z,30.97
2023-04-16T09:20:49.359Z,36.33
2023-04-16T09:23:16.336Z,34.50
2023-04-16T09:25:43.262Z,30.60
2023-04-16T09:28:11.024Z,35.97
2023-04-16T09:30:37.821Z,34.47
2023-04-16T09:33:16.859Z,28.63
2023-04-16T09:35:47.782Z,34.23
2023-04-16T09:38:14.684Z,36.17
2023-04-16T09:40:41.664Z,28.77
2023-04-16T09:43:15.311Z,32.57
2023-04-16T09:45:49.167Z,32.27
2023-04-16T09:48:15.973Z,29.53
2023-04-16T09:50:51.821Z,30.67
2023-04-16T09:53:29.280Z,32.20
2023-04-16T09:55:58.936Z,35.13
2023-04-16T09:58:25.901Z,28.43
2023-04-16T10:00:56.544Z,30.63
2023-04-16T10:03:33.499Z,31.90
2023-04-16T10:06:15.297Z,31.37
2023-04-16T10:08:50.264Z,31.13
2023-04-16T10:11:17.702Z,30.80
2023-04-16T10:13:44.523Z,33.07
2023-04-16T10:16:11.637Z,30.23
2023-04-16T10:18:40.032Z,33.00
2023-04-16T10:21:08.105Z,30.73
2023-04-16T10:23:35.260Z,31.33
2023-04-16T10:26:02.424Z,29.70
2023-04-16T10:28:29.717Z,32.03
2023-04-16T10:30:57.856Z,29.87
2023-04-16T10:33:27.500Z,29.10
2023-04-16T10:36:13.619Z,32.37
2023-04-16T10:38:51.155Z,27.30
2023-04-16T10:41:19.757Z,25.97
2023-04-16T10:43:48.207Z,28.10
2023-04-16T10:46:21.096Z,23.57
2023-04-16T10:48:50.110Z,21.63
2023-04-16T10:51:26.603Z,25.33
2023-04-16T10:53:54.666Z,23.13
2023-04-16T10:56:31.728Z,22.30
2023-04-16T10:58:58.801Z,25.50
2023-04-16T11:01:33.228Z,22.13
2023-04-16T11:04:02.299Z,23.60
2023-04-16T11:06:29.746Z,24.20
2023-04-16T11:08:58.151Z,24.77
2023-04-16T11:11:25.711Z,21.80
2023-04-16T11:13:55.750Z,24.37
2023-04-16T11:16:22.633Z,22.50
2023-04-16T11:18:51.381Z,27.47
2023-04-16T11:21:19.752Z,26.53
2023-04-16T11:23:47.890Z,26.97
2023-04-16T11:26:24.705Z,26.30
2023-04-16T11:28:52.087Z,30.77
2023-04-16T11:31:19.065Z,30.57
2023-04-16T11:33:45.955Z,25.43
2023-04-16T11:36:13.004Z,26.90
2023-04-16T11:38:41.452Z,25.20
2023-04-16T11:41:08.617Z,21.03
2023-04-16T11:43:35.532Z,23.47
2023-04-16T11:46:12.874Z,21.93
2023-04-16T11:48:50.302Z,22.07
2023-04-16T11:51:17.410Z,23.77
2023-04-16T11:53:51.227Z,25.13
2023-04-16T11:56:25.536Z,26.37
2023-04-16T11:59:12.224Z,22.90
2023-04-16T12:01:40.560Z,22.27
2023-04-16T12:04:08.250Z,19.93
2023-04-16T12:06:36.868Z,20.03
2023-04-16T12:09:23.385Z,21.43
2023-04-16T12:11:50.240Z,20.83
2023-04-16T12:14:17.139Z,20.77
2023-04-16T12:16:44.000Z,18.57
2023-04-16T12:19:12.750Z,20.57
2023-04-16T12:21:43.007Z,21.97
2023-04-16T12:24:11.572Z,23.60
2023-04-16T12:26:42.144Z,19.90
2023-04-16T12:29:16.270Z,22.23
2023-04-16T12:31:44.564Z,21.50
2023-04-16T12:34:11.561Z,22.33
2023-04-16T12:36:38.657Z,21.40
2023-04-16T12:39:06.404Z,19.50
2023-04-16T12:41:36.984Z,20.80
2023-04-16T12:44:04.796Z,21.57
2023-04-16T12:46:32.314Z,22.07
2023-04-16T12:48:59.085Z,22.87
2023-04-16T12:51:27.114Z,21.83
2023-04-16T12:53:54.680Z,20.93
2023-04-16T12:56:22.110Z,23.53
2023-04-16T12:58:51.883Z,23.90
2023-04-16T13:01:19.691Z,21.33
2023-04-16T13:03:47.198Z,20.70
2023-04-16T13:06:15.144Z,24.53
2023-04-16T13:08:43.193Z,24.70
2023-04-16T13:11:10.807Z,21.33
2023-04-16T13:13:37.571Z,23.33
2023-04-16T13:16:06.813Z,24.40
2023-04-16T13:18:34.395Z,20.90
2023-04-16T13:21:01.509Z,23.13
2023-04-16T13:23:28.327Z,23.23
2023-04-16T13:25:55.093Z,22.27
2023-04-16T13:28:22.418Z,21.63
2023-04-16T13:30:49.437Z,23.27
2023-04-16T13:33:16.768Z,19.43
2023-04-16T13:35:43.529Z,22.57
2023-04-16T13:38:10.416Z,22.80
2023-04-16T13:40:37.156Z,22.23
2023-04-16T13:43:05.004Z,19.00
2023-04-16T13:45:33.141Z,20.90
2023-04-16T13:48:00.166Z,20.53
2023-04-16T13:50:26.964Z,21.17
2023-04-16T13:52:53.701Z,20.40
2023-04-16T13:55:20.495Z,19.33
2023-04-16T13:57:48.135Z,24.33
2023-04-16T14:00:15.631Z,22.37
2023-04-16T14:02:42.943Z,19.27
2023-04-16T14:05:09.877Z,22.27
2023-04-16T14:07:37.548Z,22.53
2023-04-16T14:10:04.480Z,23.10
2023-04-16T14:12:31.884Z,18.13
2023-04-16T14:14:58.821Z,20.13
2023-04-16T14:17:25.784Z,20.77
2023-04-16T14:19:52.566Z,19.33
2023-04-16T14:22:19.332Z,23.23
2023-04-16T14:24:46.270Z,23.17
2023-04-16T14:27:13.845Z,23.90
2023-04-16T14:29:41.571Z,20.37
2023-04-16T14:32:08.626Z,18.53
2023-04-16T14:34:35.570Z,21.37
2023-04-16T14:37:02.464Z,24.60
2023-04-16T14:39:30.146Z,21.70
2023-04-16T14:41:56.959Z,23.73
2023-04-16T14:44:24.257Z,25.13
2023-04-16T14:46:51.140Z,25.97
2023-04-16T14:49:18.025Z,24.27
2023-04-16T14:51:45.673Z,24.20
2023-04-16T14:54:12.670Z,22.63
2023-04-16T14:56:39.522Z,24.47
2023-04-16T14:59:07.046Z,25.30
2023-04-16T15:01:34.783Z,25.33
2023-04-16T15:04:03.074Z,21.90
2023-04-16T15:06:30.380Z,24.60
2023-04-16T15:08:57.189Z,23.03
2023-04-16T15:11:23.951Z,20.43
2023-04-16T15:13:50.805Z,22.37
2023-04-16T15:16:18.816Z,17.83
2023-04-16T15:18:47.684Z,20.87
2023-04-16T15:21:14.514Z,21.60
2023-04-16T15:23:41.452Z,21.13
2023-04-16T15:26:08.186Z,21.93
2023-04-16T15:28:34.951Z,21.87
2023-04-16T15:31:01.807Z,24.57
2023-04-16T15:33:28.727Z,23.33
2023-04-16T15:35:55.563Z,25.57
2023-04-16T15:38:22.414Z,22.47
2023-04-16T15:40:49.288Z,25.50
2023-04-16T15:43:16.173Z,29.80
2023-04-16T15:45:42.920Z,25.83
2023-04-16T15:48:10.282Z,30.83
2023-04-16T15:50:37.143Z,31.07
2023-04-16T15:53:03.977Z,25.57
2023-04-16T15:55:30.693Z,27.63
2023-04-16T15:57:57.491Z,29.27
2023-04-16T16:00:24.496Z,24.37
2023-04-16T16:02:51.641Z,26.23
2023-04-16T16:05:18.853Z,30.67
2023-04-16T16:07:46.427Z,33.60
2023-04-16T16:10:13.468Z,27.00
2023-04-16T16:12:40.948Z,29.53
2023-04-16T16:15:07.989Z,29.67
2023-04-16T16:17:34.945Z,27.27
2023-04-16T16:20:01.821Z,26.37
2023-04-16T16:22:28.791Z,24.40
2023-04-16T16:24:56.286Z,30.10
2023-04-16T16:27:23.228Z,26.20
2023-04-16T16:29:50.496Z,25.93
2023-04-16T16:32:17.302Z,28.77
2023-04-16T16:34:44.073Z,30.03
2023-04-16T16:37:11.052Z,35.57
2023-04-16T16:39:38.903Z,30.47
2023-04-16T16:42:06.087Z,31.70
2023-04-16T16:44:32.877Z,28.60
2023-04-16T16:47:00.010Z,30.17
2023-04-16T16:49:27.628Z,34.97
2023-04-16T16:51:54.614Z,30.87
2023-04-16T16:54:21.293Z,31.57
2023-04-16T16:56:48.077Z,29.83
2023-04-16T16:59:14.820Z,31.90
2023-04-16T17:01:41.611Z,31.97
2023-04-16T17:04:08.440Z,32.53
2023-04-16T17:06:35.404Z,31.27
2023-04-16T17:09:02.199Z,29.70
2023-04-16T17:11:31.773Z,29.37
2023-04-16T17:13:58.725Z,31.13
2023-04-16T17:16:25.551Z,31.30
2023-04-16T17:18:52.432Z,34.70
2023-04-16T17:21:19.184Z,31.17
2023-04-16T17:23:45.998Z,28.33
2023-04-16T17:26:12.862Z,32.73
2023-04-16T17:28:39.653Z,32.40
2023-04-16T17:31:07.322Z,31.57
2023-04-16T17:33:34.370Z,27.63
2023-04-16T17:36:01.416Z,30.97
2023-04-16T17:38:28.084Z,26.73
2023-04-16T17:40:54.877Z,32.00
2023-04-16T17:43:21.619Z,30.83
2023-04-16T17:45:48.455Z,29.43
2023-04-16T17:48:15.197Z,30.17
2023-04-16T17:50:42.162Z,30.13
2023-04-16T17:53:09.150Z,28.80
2023-04-16T17:55:35.948Z,27.53
2023-04-16T17:58:04.396Z,26.53
2023-04-16T18:00:31.413Z,27.97
2023-04-16T18:02:59.929Z,29.93
2023-04-16T18:05:27.571Z,30.40
2023-04-16T18:07:55.624Z,25.57
2023-04-16T18:10:22.409Z,28.63
2023-04-16T18:12:49.260Z,26.67
2023-04-16T18:15:16.543Z,26.20
2023-04-16T18:17:43.321Z,26.50
2023-04-16T18:20:11.815Z,25.93
2023-04-16T18:22:38.567Z,26.40
2023-04-16T18:25:05.547Z,27.43
2023-04-16T18:27:32.185Z,23.50
2023-04-16T18:29:59.500Z,26.87
2023-04-16T18:32:28.989Z,26.10
2023-04-16T18:34:58.331Z,28.87
2023-04-16T18:37:25.086Z,28.13
2023-04-16T18:39:51.852Z,27.93
2023-04-16T18:42:18.570Z,30.17
2023-04-16T18:44:51.275Z,24.90
2023-04-16T18:47:18.310Z,25.10
2023-04-16T18:49:45.122Z,29.60
2023-04-16T18:52:11.880Z,24.53
2023-04-16T18:54:38.624Z,25.87
2023-04-16T18:57:06.631Z,24.07
2023-04-16T18:59:33.273Z,25.87
2023-04-16T19:02:01.117Z,26.70
2023-04-16T19:04:28.075Z,28.03
2023-04-16T19:06:55.013Z,25.13
2023-04-16T19:09:21.728Z,27.17
2023-04-16T19:11:50.735Z,26.80
2023-04-16T19:14:17.457Z,24.90
2023-04-16T19:16:44.370Z,26.80
2023-04-16T19:19:11.718Z,25.23
2023-04-16T19:21:38.683Z,27.03
2023-04-16T19:24:07.329Z,30.20
2023-04-16T19:26:34.154Z,25.60
2023-04-16T19:29:02.366Z,23.93
2023-04-16T19:31:31.264Z,24.33
2023-04-16T19:33:58.486Z,22.20
2023-04-16T19:36:26.728Z,23.63
2023-04-16T19:38:53.463Z,25.13
2023-04-16T19:41:20.223Z,26.47
2023-04-16T19:43:46.968Z,27.43
2023-04-16T19:46:15.963Z,28.77
2023-04-16T19:48:42.708Z,27.37
2023-04-16T19:51:11.039Z,27.60
2023-04-16T19:53:38.648Z,25.87
2023-04-16T19:56:05.601Z,27.57
2023-04-16T19:58:32.369Z,28.67
2023-04-16T20:00:59.209Z,25.37
2023-04-16T20:03:26.320Z,27.90
2023-04-16T20:05:53.301Z,26.77
2023-04-16T20:08:20.141Z,28.43
2023-04-16T20:10:46.996Z,28.03
2023-04-16T20:13:13.862Z,27.87
2023-04-16T20:15:40.692Z,28.13
2023-04-16T20:18:08.912Z,29.27
2023-04-16T20:20:36.942Z,32.67
2023-04-16T20:23:03.931Z,29.07
2023-04-16T20:25:30.876Z,26.93
2023-04-16T20:27:57.642Z,28.83
2023-04-16T20:30:29.253Z,28.27
2023-04-16T20:32:56.688Z,28.10
2023-04-16T20:35:23.658Z,25.27
2023-04-16T20:37:50.396Z,31.00
2023-04-16T20:40:17.327Z,29.40
2023-04-16T20:42:46.541Z,34.50
2023-04-16T20:45:13.391Z,27.90
2023-04-16T20:47:40.146Z,29.83
2023-04-16T20:50:07.818Z,29.70
2023-04-16T20:52:34.583Z,28.93
2023-04-16T20:55:02.709Z,31.43
2023-04-16T20:57:31.083Z,31.33
2023-04-16T20:59:58.658Z,35.00
2023-04-16T21:02:25.857Z,31.17
2023-04-16T21:04:53.251Z,30.13
2023-04-16T21:07:20.070Z,30.47
2023-04-16T21:09:46.834Z,36.43
2023-04-16T21:12:13.609Z,35.33
2023-04-16T21:14:40.633Z,29.80
2023-04-16T21:17:07.387Z,31.57
2023-04-16T21:19:34.211Z,32.50
2023-04-16T21:22:02.748Z,27.83
2023-04-16T21:24:29.521Z,31.17
2023-04-16T21:26:56.958Z,35.90
2023-04-16T21:29:23.739Z,36.87
2023-04-16T21:31:50.519Z,32.30
2023-04-16T21:34:17.213Z,30.67
2023-04-16T21:36:44.143Z,34.50
2023-04-16T21:39:11.683Z,34.30
2023-04-16T21:41:38.768Z,36.50
2023-04-16T21:44:05.758Z,31.60
2023-04-16T21:46:32.444Z,32.87
2023-04-16T21:48:59.137Z,31.97
2023-04-16T21:51:29.967Z,32.70
2023-04-16T21:53:56.931Z,36.53
2023-04-16T21:56:24.518Z,32.03
2023-04-16T21:58:51.251Z,33.80
2023-04-16T22:01:18.024Z,31.03
2023-04-16T22:03:47.536Z,28.57
2023-04-16T22:06:16.840Z,27.80
2023-04-16T22:08:43.631Z,27.93
2023-04-16T22:11:10.399Z,29.57
2023-04-16T22:13:37.166Z,29.43
2023-04-16T22:16:04.152Z,28.20
2023-04-16T22:18:33.815Z,33.93
2023-04-16T22:21:00.618Z,30.13
2023-04-16T22:23:27.326Z,28.13
2023-04-16T22:25:54.541Z,27.83
2023-04-16T22:28:21.350Z,31.13
2023-04-16T22:30:48.949Z,30.30
2023-04-16T22:33:15.815Z,28.27
2023-04-16T22:35:42.600Z,31.93
2023-04-16T22:38:10.277Z,29.83
2023-04-16T22:40:37.045Z,29.40
2023-04-16T22:43:03.785Z,30.00
2023-04-16T22:45:30.519Z,32.37
2023-04-16T22:47:57.301Z,32.87
2023-04-16T22:50:24.053Z,32.23
2023-04-16T22:52:51.007Z,32.07
2023-04-16T22:55:17.669Z,33.63
2023-04-16T22:57:44.512Z,32.10
2023-04-16T23:00:16.063Z,31.90
2023-04-16T23:02:45.913Z,33.70
2023-04-16T23:05:13.172Z,33.53
2023-04-16T23:07:40.220Z,33.57
2023-04-16T23:10:08.879Z,38.93
2023-04-16T23:12:37.676Z,39.83
2023-04-16T23:15:07.085Z,42.40
2023-04-16T23:17:35.332Z,40.17
2023-04-16T23:20:02.512Z,43.73
2023-04-16T23:22:29.926Z,42.87
2023-04-16T23:24:57.123Z,41.57
2023-04-16T23:27:24.384Z,44.33
2023-04-16T23:29:51.573Z,42.20
2023-04-16T23:32:18.653Z,41.93
2023-04-16T23:34:45.832Z,45.63
2023-04-16T23:37:12.586Z,44.17
2023-04-16T23:39:39.432Z,44.57
2023-04-16T23:42:06.380Z,40.13
2023-04-16T23:44:33.700Z,39.57
2023-04-16T23:47:00.706Z,43.13
2023-04-16T23:49:27.539Z,40.23
2023-04-16T23:51:54.463Z,44.07
2023-04-16T23:54:21.550Z,47.47
2023-04-16T23:56:48.437Z,39.13
2023-04-16T23:59:15.243Z,45.10
